Spennymoor, United Kingdom
Current Conditions -  °F | °C
As of 7:20 PM on Friday 24 Oct 2014 (Local Time) from EGNV Reporting Station
Few Clouds Few Clouds  
Wind Chill: 50°   Ceiling: Unl
Heat Index: 50°   Visibility: 6mi
Dew Point: 41°   Wind: 8mph
Humidity: 71%   Direction: 220°SW
Pressure: 29.83"   Gusts: NA
Location:  54.7°N, 1.6°W
Report Text: EGNV 241820Z 22007KT 9999 FEW040 10/05 Q1010
Loading
Personal Weather Stations






























Interactive Weather Map New forecast layout! Learn more

10-Day Weather Forecast

Advertisements
Track Severe Weather on mobile